Time;durP1;ratioP1;P1;durP2;ratioP2;P2;SDS_P1;SDS_P2;PMS_P1;PMS_P2;Temp;Humidity;BMP_temperature;BMP_pressure;BME280_temperature;BME280_humidity;BME280_pressure;Samples;Min_cycle;Max_cycle;Signal;HPM_P1;HPM_P2
2023/10/26 00:00:36;;;;;;;120.13;45.58;;;;;;;;;;5019672;28;20379;-83
2023/10/26 00:03:02;;;;;;;138.35;48.58;;;;;;;;;;5002245;28;20030;-85
2023/10/26 00:05:28;;;;;;;122.75;44.17;;;;;;;;;;5022221;28;20439;-85
2023/10/26 00:07:54;;;;;;;128.48;45.05;;;;;;;;;;5025067;28;20116;-86
2023/10/26 00:10:21;;;;;;;123.57;43.22;;;;;;;;;;5001970;28;20529;-83
2023/10/26 00:12:47;;;;;;;139.65;45.22;;;;;;;;;;5015279;28;20043;-86
2023/10/26 00:15:13;;;;;;;119.88;43.60;;;;;;;;;;5004429;28;20061;-83
2023/10/26 00:17:39;;;;;;;124.28;46.63;;;;;;;;;;4983318;28;20605;-84
2023/10/26 00:20:06;;;;;;;144.10;48.10;;;;;;;;;;5024546;28;20299;-85
2023/10/26 00:22:32;;;;;;;127.68;48.30;;;;;;;;;;5018321;28;20042;-84
2023/10/26 00:24:58;;;;;;;140.20;47.65;;;;;;;;;;4987947;28;20095;-84
2023/10/26 00:27:25;;;;;;;157.73;49.78;;;;;;;;;;5007151;28;20033;-84
2023/10/26 00:29:51;;;;;;;132.43;47.80;;;;;;;;;;4992388;28;20042;-84
2023/10/26 00:32:17;;;;;;;143.63;48.05;;;;;;;;;;4999729;28;20062;-85
2023/10/26 00:34:43;;;;;;;152.02;49.95;;;;;;;;;;5019996;28;20022;-84
2023/10/26 00:37:09;;;;;;;145.15;50.55;;;;;;;;;;5000914;28;20026;-84
2023/10/26 00:39:36;;;;;;;163.55;52.90;;;;;;;;;;4998638;28;20079;-85
2023/10/26 00:42:02;;;;;;;151.38;52.25;;;;;;;;;;5001131;28;20064;-84
2023/10/26 00:44:28;;;;;;;179.48;53.40;;;;;;;;;;5017995;28;20029;-85
2023/10/26 00:46:56;;;;;;;157.60;51.92;;;;;;;;;;5000583;28;20025;-85
2023/10/26 00:49:23;;;;;;;147.50;51.75;;;;;;;;;;5006734;28;20088;-84
2023/10/26 00:51:55;;;;;;;156.13;52.72;;;;;;;;;;5006644;28;20029;-84
2023/10/26 00:54:22;;;;;;;156.05;51.13;;;;;;;;;;5004281;28;20021;-85
2023/10/26 00:56:50;;;;;;;194.70;52.70;;;;;;;;;;5019812;28;21404;-85
2023/10/26 00:59:17;;;;;;;145.02;48.97;;;;;;;;;;5021079;28;20426;-85
2023/10/26 01:01:45;;;;;;;181.55;52.03;;;;;;;;;;5002962;28;20021;-84
2023/10/26 01:04:14;;;;;;;171.35;50.75;;;;;;;;;;5000278;28;20487;-83
2023/10/26 01:06:41;;;;;;;172.90;50.00;;;;;;;;;;5002781;28;20026;-84
2023/10/26 01:09:08;;;;;;;178.93;51.22;;;;;;;;;;5022908;28;20053;-84
2023/10/26 01:11:34;;;;;;;133.75;49.05;;;;;;;;;;5008622;28;20029;-84
2023/10/26 01:14:01;;;;;;;197.13;55.55;;;;;;;;;;5025277;28;20026;-84
2023/10/26 01:16:27;;;;;;;198.85;54.88;;;;;;;;;;5018301;28;20101;-85
2023/10/26 01:18:53;;;;;;;196.10;57.55;;;;;;;;;;5003723;28;20064;-86
2023/10/26 01:21:19;;;;;;;208.45;58.72;;;;;;;;;;5009170;28;20034;-84
2023/10/26 01:23:45;;;;;;;181.05;58.17;;;;;;;;;;5023276;28;20561;-82
2023/10/26 01:26:13;;;;;;;223.02;61.35;;;;;;;;;;5024857;28;20037;-85
2023/10/26 01:28:40;;;;;;;214.02;62.22;;;;;;;;;;5022068;28;20030;-84
2023/10/26 01:31:06;;;;;;;197.52;59.20;;;;;;;;;;5022751;28;20087;-85
2023/10/26 01:33:32;;;;;;;227.20;61.47;;;;;;;;;;5001231;28;20513;-84
2023/10/26 01:35:58;;;;;;;230.15;63.05;;;;;;;;;;5020273;28;20040;-83
2023/10/26 01:38:24;;;;;;;207.88;61.58;;;;;;;;;;4997488;28;20506;-86
2023/10/26 01:40:52;;;;;;;225.80;59.03;;;;;;;;;;5006227;28;20336;-85
2023/10/26 01:43:18;;;;;;;211.05;60.60;;;;;;;;;;5024415;28;20450;-86
2023/10/26 01:45:44;;;;;;;208.77;59.78;;;;;;;;;;5024022;28;20037;-82
2023/10/26 01:48:10;;;;;;;245.70;64.10;;;;;;;;;;5015001;28;20608;-82
2023/10/26 01:50:36;;;;;;;238.02;62.10;;;;;;;;;;5011650;28;20064;-83
2023/10/26 01:53:02;;;;;;;253.25;62.83;;;;;;;;;;5009644;28;20810;-83
2023/10/26 01:55:28;;;;;;;216.63;63.70;;;;;;;;;;5021377;28;20029;-84
2023/10/26 01:57:55;;;;;;;224.02;62.35;;;;;;;;;;5003617;28;20180;-85
2023/10/26 02:00:21;;;;;;;233.25;62.15;;;;;;;;;;5010281;28;20060;-85
2023/10/26 02:02:49;;;;;;;251.57;66.32;;;;;;;;;;5008399;28;20304;-84
2023/10/26 02:05:16;;;;;;;258.02;62.92;;;;;;;;;;4999804;28;20085;-84
2023/10/26 02:07:42;;;;;;;270.30;64.82;;;;;;;;;;5021119;28;20052;-85
2023/10/26 02:10:09;;;;;;;224.57;61.83;;;;;;;;;;4988778;28;20072;-85
2023/10/26 02:12:35;;;;;;;247.23;61.55;;;;;;;;;;4999344;28;20280;-85
2023/10/26 02:15:01;;;;;;;302.75;63.08;;;;;;;;;;5004455;28;20393;-85
2023/10/26 02:17:28;;;;;;;224.73;60.42;;;;;;;;;;4997810;28;20057;-85
2023/10/26 02:19:54;;;;;;;279.10;63.83;;;;;;;;;;5004069;28;20462;-85
2023/10/26 02:22:21;;;;;;;276.02;62.90;;;;;;;;;;4989490;28;20336;-84
2023/10/26 02:24:47;;;;;;;251.25;60.53;;;;;;;;;;5023429;28;20158;-84
2023/10/26 02:27:14;;;;;;;337.80;64.47;;;;;;;;;;5003501;28;20025;-85
2023/10/26 02:29:40;;;;;;;406.83;65.78;;;;;;;;;;5001228;28;20036;-86
2023/10/26 02:32:07;;;;;;;267.13;61.78;;;;;;;;;;5000043;28;20025;-86
2023/10/26 02:34:33;;;;;;;535.47;64.72;;;;;;;;;;5021915;28;20052;-86
2023/10/26 02:37:00;;;;;;;197.48;54.85;;;;;;;;;;5024668;28;20103;-86
2023/10/26 02:39:27;;;;;;;388.48;60.40;;;;;;;;;;5010657;28;20038;-86
2023/10/26 02:41:54;;;;;;;211.13;53.60;;;;;;;;;;5021168;28;20039;-84
2023/10/26 02:44:20;;;;;;;393.95;58.85;;;;;;;;;;5017447;28;20033;-84
2023/10/26 02:46:46;;;;;;;300.45;58.10;;;;;;;;;;5022565;28;20141;-84
2023/10/26 02:49:13;;;;;;;319.73;60.58;;;;;;;;;;5003419;28;20025;-84
2023/10/26 02:51:40;;;;;;;379.95;58.55;;;;;;;;;;5021097;28;20494;-85
2023/10/26 02:54:06;;;;;;;712.17;63.22;;;;;;;;;;5008224;28;20036;-85
2023/10/26 02:56:32;;;;;;;666.95;62.10;;;;;;;;;;5022955;28;20380;-85
2023/10/26 02:58:59;;;;;;;493.77;52.22;;;;;;;;;;5016972;28;20056;-85
2023/10/26 03:01:25;;;;;;;530.90;53.08;;;;;;;;;;4991140;28;20446;-86
2023/10/26 03:03:51;;;;;;;856.75;64.55;;;;;;;;;;5025693;28;20056;-85
2023/10/26 03:06:17;;;;;;;795.50;59.08;;;;;;;;;;4997046;28;20070;-85
2023/10/26 03:08:43;;;;;;;647.10;58.22;;;;;;;;;;5002096;28;20453;-86
2023/10/26 03:11:09;;;;;;;334.08;49.42;;;;;;;;;;4993684;28;20091;-86
2023/10/26 03:13:35;;;;;;;488.92;52.50;;;;;;;;;;5001487;28;20440;-86
2023/10/26 03:16:01;;;;;;;272.42;46.05;;;;;;;;;;5013490;28;20121;-85
2023/10/26 03:18:28;;;;;;;320.65;45.75;;;;;;;;;;5023052;28;20462;-85
2023/10/26 03:20:54;;;;;;;168.02;41.10;;;;;;;;;;5024635;28;20063;-84
2023/10/26 03:23:21;;;;;;;299.85;46.47;;;;;;;;;;4998713;28;20374;-84
2023/10/26 03:25:48;;;;;;;340.63;45.90;;;;;;;;;;5014978;28;20055;-85
2023/10/26 03:28:14;;;;;;;461.42;49.63;;;;;;;;;;5015418;28;20075;-85
2023/10/26 03:30:40;;;;;;;292.25;44.13;;;;;;;;;;5001697;28;20091;-85
2023/10/26 03:33:06;;;;;;;228.00;42.55;;;;;;;;;;5001474;28;20064;-85
2023/10/26 03:35:35;;;;;;;366.90;42.53;;;;;;;;;;4991458;28;20466;-85
2023/10/26 03:38:03;;;;;;;273.15;40.65;;;;;;;;;;5023201;28;20045;-86
2023/10/26 03:40:32;;;;;;;;;;;;;;;;;;5019858;28;20025;-85
2023/10/26 03:42:58;;;;;;;351.98;44.40;;;;;;;;;;5021406;28;20268;-84
2023/10/26 03:45:26;;;;;;;245.50;40.35;;;;;;;;;;5022039;28;20038;-86
2023/10/26 03:47:53;;;;;;;349.50;43.63;;;;;;;;;;5008082;28;20042;-86
2023/10/26 03:50:19;;;;;;;320.10;43.63;;;;;;;;;;5002074;28;20025;-85
2023/10/26 03:52:45;;;;;;;356.35;44.92;;;;;;;;;;5042352;28;20036;-83
2023/10/26 03:55:11;;;;;;;247.63;44.90;;;;;;;;;;5014259;28;20053;-85
2023/10/26 03:57:37;;;;;;;443.13;51.35;;;;;;;;;;5008737;28;20018;-86
2023/10/26 04:00:04;;;;;;;358.27;46.58;;;;;;;;;;5021993;28;20446;-85
2023/10/26 04:02:37;;;;;;;486.08;50.00;;;;;;;;;;5003497;28;20073;-85
2023/10/26 04:05:04;;;;;;;450.70;50.05;;;;;;;;;;4997888;28;20372;-86
2023/10/26 04:07:33;;;;;;;397.27;50.40;;;;;;;;;;5004578;28;20033;-86
2023/10/26 04:09:59;;;;;;;554.67;53.88;;;;;;;;;;4994453;28;20136;-84
2023/10/26 04:12:25;;;;;;;278.50;45.17;;;;;;;;;;4988233;28;20123;-85
2023/10/26 04:14:52;;;;;;;677.97;61.70;;;;;;;;;;5003889;28;20018;-85
2023/10/26 04:17:18;;;;;;;673.95;65.80;;;;;;;;;;4996761;28;20035;-85
2023/10/26 04:19:44;;;;;;;467.13;55.97;;;;;;;;;;5004186;28;20086;-86
2023/10/26 04:22:12;;;;;;;699.15;67.00;;;;;;;;;;5002397;28;20049;-87
2023/10/26 04:24:38;;;;;;;316.50;55.97;;;;;;;;;;5004830;28;20040;-86
2023/10/26 04:27:04;;;;;;;507.48;58.22;;;;;;;;;;5005518;28;20498;-86
2023/10/26 04:29:30;;;;;;;581.90;61.05;;;;;;;;;;5001621;28;20033;-84
2023/10/26 04:31:56;;;;;;;881.65;74.68;;;;;;;;;;5005919;28;20516;-85
2023/10/26 04:34:23;;;;;;;583.78;61.95;;;;;;;;;;5008271;28;20053;-87
2023/10/26 04:36:49;;;;;;;683.70;63.40;;;;;;;;;;5004195;28;20391;-84
2023/10/26 04:39:15;;;;;;;889.63;71.85;;;;;;;;;;4983187;28;20052;-86
2023/10/26 04:41:43;;;;;;;452.50;56.58;;;;;;;;;;5003632;28;20045;-85
2023/10/26 04:44:09;;;;;;;959.45;76.18;;;;;;;;;;5009535;28;20062;-85
2023/10/26 04:46:36;;;;;;;594.83;64.35;;;;;;;;;;4999998;28;20431;-85
2023/10/26 04:49:03;;;;;;;624.17;62.72;;;;;;;;;;5001688;28;20034;-85
2023/10/26 04:51:31;;;;;;;642.50;63.13;;;;;;;;;;5002080;28;20108;-84
2023/10/26 04:53:58;;;;;;;449.98;55.85;;;;;;;;;;5000302;28;20491;-85
2023/10/26 04:56:24;;;;;;;654.83;64.13;;;;;;;;;;5005152;28;20406;-86
2023/10/26 04:58:50;;;;;;;793.60;72.63;;;;;;;;;;4999234;28;20041;-86
2023/10/26 05:01:16;;;;;;;578.05;64.05;;;;;;;;;;4999586;28;20403;-84
2023/10/26 05:03:42;;;;;;;717.80;69.35;;;;;;;;;;4981135;28;20038;-85
2023/10/26 05:06:08;;;;;;;808.70;73.60;;;;;;;;;;5002727;28;20460;-86
2023/10/26 05:08:35;;;;;;;1010.20;86.05;;;;;;;;;;5006890;28;20125;-86
2023/10/26 05:11:01;;;;;;;801.60;73.85;;;;;;;;;;5016790;28;20457;-85
2023/10/26 05:13:48;;;;;;;745.53;74.53;;;;;;;;;;5022049;28;20026;-84
2023/10/26 05:16:14;;;;;;;794.97;75.28;;;;;;;;;;5023672;28;20065;-85
2023/10/26 05:18:40;;;;;;;878.20;74.55;;;;;;;;;;5000591;28;20502;-85
2023/10/26 05:21:06;;;;;;;791.55;73.35;;;;;;;;;;5024731;28;20039;-85
2023/10/26 05:23:32;;;;;;;517.30;60.33;;;;;;;;;;4998793;28;20439;-85
2023/10/26 05:25:58;;;;;;;779.10;73.13;;;;;;;;;;5017323;28;20192;-85
2023/10/26 05:28:24;;;;;;;747.17;69.32;;;;;;;;;;5019698;28;20427;-84
2023/10/26 05:30:50;;;;;;;576.45;60.47;;;;;;;;;;5002864;28;21647;-85
2023/10/26 05:33:16;;;;;;;755.97;65.60;;;;;;;;;;5006447;28;20062;-86
2023/10/26 05:35:43;;;;;;;681.58;66.35;;;;;;;;;;5010226;28;20088;-87
2023/10/26 05:38:10;;;;;;;676.50;62.45;;;;;;;;;;5004341;28;20072;-87
2023/10/26 05:40:38;;;;;;;632.78;60.22;;;;;;;;;;5006835;28;20104;-89
2023/10/26 05:43:04;;;;;;;715.65;64.20;;;;;;;;;;5005582;28;20033;-86
2023/10/26 05:45:37;;;;;;;687.10;64.85;;;;;;;;;;5004881;28;20061;-88
2023/10/26 05:48:05;;;;;;;656.75;63.63;;;;;;;;;;5010280;28;20022;-86
2023/10/26 05:50:31;;;;;;;637.58;62.70;;;;;;;;;;5033458;28;20025;-87
2023/10/26 05:52:57;;;;;;;719.78;63.25;;;;;;;;;;5027189;28;20585;-85
2023/10/26 05:55:24;;;;;;;533.45;56.05;;;;;;;;;;5021155;28;20018;-88
2023/10/26 05:57:50;;;;;;;591.45;58.35;;;;;;;;;;5029712;28;20034;-86
2023/10/26 06:00:17;;;;;;;424.52;52.00;;;;;;;;;;5004261;28;20060;-87
2023/10/26 06:02:43;;;;;;;463.27;53.95;;;;;;;;;;4993361;28;20421;-87
2023/10/26 06:05:09;;;;;;;443.27;55.40;;;;;;;;;;5001521;28;20038;-87
2023/10/26 06:07:35;;;;;;;644.40;58.92;;;;;;;;;;4991293;28;20036;-87
2023/10/26 06:10:01;;;;;;;462.10;53.25;;;;;;;;;;5023110;28;20475;-89
2023/10/26 06:12:27;;;;;;;538.30;58.83;;;;;;;;;;5029700;28;20453;-89
2023/10/26 06:14:53;;;;;;;680.72;63.20;;;;;;;;;;5003831;28;20451;-88
2023/10/26 06:17:19;;;;;;;599.63;57.67;;;;;;;;;;5010803;28;20033;-92
2023/10/26 06:19:45;;;;;;;634.47;60.60;;;;;;;;;;5017463;28;20022;-91
2023/10/26 06:22:11;;;;;;;695.33;62.05;;;;;;;;;;5019907;28;20033;-89
2023/10/26 06:24:38;;;;;;;647.13;60.15;;;;;;;;;;5003068;28;20164;-88
2023/10/26 06:27:05;;;;;;;619.75;58.88;;;;;;;;;;5019250;28;20432;-88
2023/10/26 06:29:31;;;;;;;485.45;52.65;;;;;;;;;;4993100;28;20501;-87
2023/10/26 06:31:57;;;;;;;715.00;60.45;;;;;;;;;;5018538;28;20478;-88
2023/10/26 06:34:23;;;;;;;610.78;56.35;;;;;;;;;;5021226;28;20030;-88
2023/10/26 06:36:49;;;;;;;563.03;55.70;;;;;;;;;;5021724;28;20041;-88
2023/10/26 06:39:16;;;;;;;636.03;63.13;;;;;;;;;;5018734;28;20049;-88
2023/10/26 06:41:42;;;;;;;633.13;62.92;;;;;;;;;;4991324;28;20044;-88
2023/10/26 06:44:14;;;;;;;715.25;63.80;;;;;;;;;;4978127;28;20118;-88
2023/10/26 06:46:40;;;;;;;565.88;60.88;;;;;;;;;;5003186;28;20052;-88
2023/10/26 06:49:06;;;;;;;679.90;65.97;;;;;;;;;;5009033;28;20042;-86
2023/10/26 06:51:32;;;;;;;703.85;68.53;;;;;;;;;;5017925;28;20347;-90
2023/10/26 06:53:58;;;;;;;650.63;63.85;;;;;;;;;;4989849;28;20157;-90
2023/10/26 06:56:24;;;;;;;586.63;62.40;;;;;;;;;;5011305;28;20194;-86
2023/10/26 06:58:50;;;;;;;672.65;61.28;;;;;;;;;;5008685;28;20109;-86
2023/10/26 07:01:16;;;;;;;723.75;64.28;;;;;;;;;;5010980;28;20100;-86
2023/10/26 07:03:42;;;;;;;698.17;62.38;;;;;;;;;;4993836;28;20120;-89
2023/10/26 07:06:09;;;;;;;828.70;65.68;;;;;;;;;;5011747;28;20088;-90
2023/10/26 07:08:35;;;;;;;866.22;74.85;;;;;;;;;;4994492;28;20107;-87
2023/10/26 07:11:07;;;;;;;820.80;76.65;;;;;;;;;;4978137;28;20078;-88
2023/10/26 07:13:34;;;;;;;796.03;67.38;;;;;;;;;;4993764;28;20100;-86
2023/10/26 07:16:01;;;;;;;534.63;55.80;;;;;;;;;;4993871;28;20022;-86
2023/10/26 07:18:28;;;;;;;841.85;68.35;;;;;;;;;;5010618;28;20433;-86
2023/10/26 07:20:54;;;;;;;560.65;53.83;;;;;;;;;;4993601;28;20037;-88
2023/10/26 07:23:20;;;;;;;875.88;63.53;;;;;;;;;;4976827;28;20121;-88
2023/10/26 07:25:46;;;;;;;678.78;57.83;;;;;;;;;;4992851;28;20049;-87
2023/10/26 07:28:13;;;;;;;816.60;62.42;;;;;;;;;;4992935;28;20115;-87
2023/10/26 07:30:40;;;;;;;805.92;63.00;;;;;;;;;;4994442;28;20040;-86
2023/10/26 07:33:06;;;;;;;855.83;63.25;;;;;;;;;;4996715;28;20475;-88
2023/10/26 07:35:38;;;;;;;729.13;62.97;;;;;;;;;;4993656;28;20038;-86
2023/10/26 07:38:05;;;;;;;939.97;67.75;;;;;;;;;;4993601;28;20064;-88
2023/10/26 07:40:31;;;;;;;787.03;58.40;;;;;;;;;;5010521;28;20034;-89
2023/10/26 07:42:57;;;;;;;841.70;58.00;;;;;;;;;;5011368;28;20044;-89
2023/10/26 07:45:25;;;;;;;870.25;59.33;;;;;;;;;;5010843;28;20132;-87
2023/10/26 07:47:51;;;;;;;777.33;53.75;;;;;;;;;;5012635;28;20128;-87
2023/10/26 07:50:20;;;;;;;638.92;51.63;;;;;;;;;;5027692;28;20025;-87
2023/10/26 07:52:46;;;;;;;857.40;58.47;;;;;;;;;;5026485;28;20025;-88
2023/10/26 07:55:13;;;;;;;558.40;50.42;;;;;;;;;;5027999;28;20022;-87
2023/10/26 07:57:41;;;;;;;870.42;62.42;;;;;;;;;;5038937;28;20052;-88
2023/10/26 08:00:08;;;;;;;917.25;66.00;;;;;;;;;;5039855;28;20072;-85
2023/10/26 08:02:38;;;;;;;926.35;59.80;;;;;;;;;;5055656;28;20064;-86
2023/10/26 08:05:04;;;;;;;727.28;55.85;;;;;;;;;;5045698;28;20051;-89
2023/10/26 08:07:31;;;;;;;1037.68;69.20;;;;;;;;;;4993452;28;20495;-87
2023/10/26 08:09:57;;;;;;;760.72;56.03;;;;;;;;;;5023247;28;20465;-88
2023/10/26 08:12:23;;;;;;;868.85;59.95;;;;;;;;;;5006964;28;20072;-87
2023/10/26 08:14:52;;;;;;;565.90;46.90;;;;;;;;;;5044537;28;20481;-87
2023/10/26 08:17:20;;;;;;;572.30;47.83;;;;;;;;;;5042841;28;20032;-87
2023/10/26 08:19:46;;;;;;;619.95;51.70;;;;;;;;;;5020602;28;20453;-88
2023/10/26 08:22:12;;;;;;;858.10;57.55;;;;;;;;;;5000593;28;20109;-88
2023/10/26 08:24:38;;;;;;;794.28;54.70;;;;;;;;;;4998287;28;20136;-88
2023/10/26 08:27:05;;;;;;;327.85;41.38;;;;;;;;;;5014980;28;20467;-88
2023/10/26 08:29:31;;;;;;;1075.38;90.13;;;;;;;;;;4997413;28;20041;-89
2023/10/26 08:31:57;;;;;;;692.25;57.72;;;;;;;;;;5031330;28;20064;-89
2023/10/26 08:34:23;;;;;;;895.15;63.05;;;;;;;;;;5034773;28;20164;-88
2023/10/26 08:36:50;;;;;;;860.40;63.22;;;;;;;;;;5016564;28;20162;-88
2023/10/26 08:39:16;;;;;;;572.00;54.30;;;;;;;;;;5016072;28;20033;-88
2023/10/26 08:41:47;;;;;;;765.92;60.78;;;;;;;;;;5033845;28;20041;-87
2023/10/26 08:44:13;;;;;;;814.20;64.90;;;;;;;;;;5015583;28;20410;-88
2023/10/26 08:46:41;;;;;;;605.05;57.15;;;;;;;;;;5034050;28;20395;-88
2023/10/26 08:49:08;;;;;;;1035.70;114.93;;;;;;;;;;5016363;28;20422;-89
2023/10/26 08:51:34;;;;;;;522.30;70.18;;;;;;;;;;5015391;28;20751;-89
2023/10/26 08:54:00;;;;;;;893.75;73.03;;;;;;;;;;5000071;28;20049;-89
2023/10/26 08:56:27;;;;;;;804.13;63.95;;;;;;;;;;4999966;28;20403;-90
2023/10/26 08:58:57;;;;;;;519.85;54.53;;;;;;;;;;5034118;28;20426;-90
2023/10/26 09:01:25;;;;;;;442.98;60.90;;;;;;;;;;5034099;28;20116;-87
2023/10/26 09:03:52;;;;;;;890.95;80.72;;;;;;;;;;5033774;28;20112;-88
2023/10/26 09:06:18;;;;;;;861.42;77.60;;;;;;;;;;5033091;28;20144;-89
2023/10/26 09:08:45;;;;;;;435.20;47.95;;;;;;;;;;5015105;28;20388;-89
2023/10/26 09:11:21;;;;;;;488.85;50.30;;;;;;;;;;4999155;28;20048;-91
2023/10/26 09:13:47;;;;;;;705.08;63.10;;;;;;;;;;4997947;28;20470;-88
2023/10/26 09:16:14;;;;;;;285.08;41.97;;;;;;;;;;5013319;28;20480;-89
2023/10/26 09:18:40;;;;;;;417.83;44.45;;;;;;;;;;5012772;28;20057;-88
2023/10/26 09:21:07;;;;;;;419.15;45.00;;;;;;;;;;5012588;28;20057;-89
2023/10/26 09:23:37;;;;;;;1046.85;70.90;;;;;;;;;;5013078;28;20038;-88
2023/10/26 09:26:06;;;;;;;823.15;67.38;;;;;;;;;;4995514;28;20438;-87
2023/10/26 09:28:51;;;;;;;268.90;44.15;;;;;;;;;;5012643;28;20372;-87
2023/10/26 09:31:17;;;;;;;156.57;43.22;;;;;;;;;;4995308;28;20045;-87
2023/10/26 09:33:44;;;;;;;357.60;51.72;;;;;;;;;;5012973;28;20076;-87
2023/10/26 09:36:20;;;;;;;201.65;43.97;;;;;;;;;;4995379;28;20026;-89
2023/10/26 09:38:47;;;;;;;552.22;59.67;;;;;;;;;;4995283;28;20038;-89
2023/10/26 09:41:15;;;;;;;346.73;51.60;;;;;;;;;;5012809;28;20033;-88
2023/10/26 09:43:42;;;;;;;112.05;41.95;;;;;;;;;;4994529;28;20399;-87
2023/10/26 09:46:08;;;;;;;100.22;36.95;;;;;;;;;;5012985;28;20041;-87
2023/10/26 09:48:35;;;;;;;156.23;40.25;;;;;;;;;;5003282;28;20451;-88
2023/10/26 09:51:01;;;;;;;90.10;36.47;;;;;;;;;;5014829;28;20042;-87
2023/10/26 09:53:30;;;;;;;104.38;39.25;;;;;;;;;;5014671;28;20449;-87
2023/10/26 09:55:56;;;;;;;145.95;41.05;;;;;;;;;;5032390;28;20029;-87
2023/10/26 09:58:25;;;;;;;128.68;40.75;;;;;;;;;;5032520;28;20041;-87
2023/10/26 10:00:52;;;;;;;134.32;37.78;;;;;;;;;;5014175;28;20033;-87
2023/10/26 10:03:18;;;;;;;73.90;35.78;;;;;;;;;;5019917;28;20028;-88
2023/10/26 10:05:47;;;;;;;70.55;36.13;;;;;;;;;;5039503;28;20060;-86
2023/10/26 10:08:13;;;;;;;80.20;39.17;;;;;;;;;;5053198;28;20029;-84
2023/10/26 10:10:59;;;;;;;76.45;38.85;;;;;;;;;;5037189;28;20054;-87
2023/10/26 10:13:37;;;;;;;69.75;36.33;;;;;;;;;;5047892;28;20108;-88
2023/10/26 10:16:03;;;;;;;60.00;33.83;;;;;;;;;;5000417;28;20111;-87
2023/10/26 10:18:29;;;;;;;62.67;35.17;;;;;;;;;;5031735;28;20459;-87
2023/10/26 10:20:56;;;;;;;58.83;33.35;;;;;;;;;;4981556;28;20033;-88
2023/10/26 10:23:29;;;;;;;57.03;33.40;;;;;;;;;;5031208;28;20045;-88
2023/10/26 10:25:56;;;;;;;54.08;32.65;;;;;;;;;;5031280;28;20363;-89
2023/10/26 10:28:22;;;;;;;51.60;31.15;;;;;;;;;;5013344;28;20026;-88
2023/10/26 10:30:57;;;;;;;44.13;28.83;;;;;;;;;;4997321;28;20461;-88
2023/10/26 10:33:27;;;;;;;39.58;26.60;;;;;;;;;;5013682;28;20498;-89
2023/10/26 10:36:02;;;;;;;36.75;24.95;;;;;;;;;;5013164;28;20376;-88
2023/10/26 10:38:29;;;;;;;39.65;26.70;;;;;;;;;;5028235;28;20029;-87
2023/10/26 10:40:55;;;;;;;33.92;24.83;;;;;;;;;;5010086;28;20490;-87
2023/10/26 10:43:30;;;;;;;35.78;26.08;;;;;;;;;;4997546;28;20093;-89
2023/10/26 10:45:56;;;;;;;29.80;22.85;;;;;;;;;;4989697;28;20050;-87
2023/10/26 10:48:22;;;;;;;26.52;21.13;;;;;;;;;;4991006;28;20119;-87
2023/10/26 10:50:51;;;;;;;23.85;18.80;;;;;;;;;;5018254;28;20033;-88
2023/10/26 10:53:17;;;;;;;23.00;16.92;;;;;;;;;;5015764;28;20439;-88
2023/10/26 10:55:44;;;;;;;25.20;19.25;;;;;;;;;;5022693;28;20030;-89
2023/10/26 10:58:10;;;;;;;24.75;19.98;;;;;;;;;;5024027;28;20111;-87
2023/10/26 11:00:44;;;;;;;25.63;19.02;;;;;;;;;;5008819;28;20041;-85
2023/10/26 11:03:17;;;;;;;25.73;18.35;;;;;;;;;;5020445;28;20053;-88
2023/10/26 11:05:43;;;;;;;23.35;18.35;;;;;;;;;;4995080;28;20038;-87
2023/10/26 11:08:10;;;;;;;25.88;18.65;;;;;;;;;;5011238;28;20554;-88
2023/10/26 11:10:36;;;;;;;21.35;17.73;;;;;;;;;;4990564;28;20495;-89
2023/10/26 11:13:02;;;;;;;23.80;18.95;;;;;;;;;;5015728;28;20028;-88
2023/10/26 11:15:32;;;;;;;25.58;18.50;;;;;;;;;;5023496;28;20025;-86
2023/10/26 11:18:00;;;;;;;23.10;17.42;;;;;;;;;;5003341;28;20037;-86
2023/10/26 11:20:33;;;;;;;19.25;16.15;;;;;;;;;;4991928;28;20394;-88
2023/10/26 11:22:59;;;;;;;21.95;16.00;;;;;;;;;;5009618;28;20101;-88
2023/10/26 11:25:28;;;;;;;17.05;15.13;;;;;;;;;;5006248;28;20147;-87
2023/10/26 11:27:54;;;;;;;18.27;15.20;;;;;;;;;;4984618;28;20038;-87
2023/10/26 11:30:20;;;;;;;17.88;14.57;;;;;;;;;;4998718;28;20033;-88
2023/10/26 11:32:46;;;;;;;16.40;13.95;;;;;;;;;;4993067;28;20025;-88
2023/10/26 11:35:13;;;;;;;16.13;13.55;;;;;;;;;;5011384;28;20505;-88
2023/10/26 11:37:44;;;;;;;14.85;12.23;;;;;;;;;;5014854;28;20061;-87
2023/10/26 11:40:10;;;;;;;;;;;;;;;;;;4994910;28;20052;-86
2023/10/26 11:42:53;;;;;;;14.73;12.23;;;;;;;;;;5011902;28;19959;-88
2023/10/26 11:45:23;;;;;;;13.82;12.23;;;;;;;;;;5004037;28;20038;-87
2023/10/26 11:48:00;;;;;;;17.42;13.43;;;;;;;;;;4998667;28;20532;-88
2023/10/26 11:50:31;;;;;;;15.07;12.77;;;;;;;;;;5023021;28;20072;-89
2023/10/26 11:52:57;;;;;;;;;;;;;;;;;;5014752;28;20030;-87
2023/10/26 11:55:24;;;;;;;14.35;11.75;;;;;;;;;;5009470;28;19917;-88
2023/10/26 11:57:51;;;;;;;13.90;11.38;;;;;;;;;;4993814;28;20030;-88
2023/10/26 12:00:18;;;;;;;13.05;10.43;;;;;;;;;;4991510;28;20402;-88
2023/10/26 12:02:44;;;;;;;14.38;11.27;;;;;;;;;;5009826;28;20111;-86
2023/10/26 12:05:16;;;;;;;15.90;12.88;;;;;;;;;;5030682;28;20092;-88
2023/10/26 12:07:45;;;;;;;16.63;13.15;;;;;;;;;;5030731;28;20010;-86
2023/10/26 12:10:12;;;;;;;19.20;14.20;;;;;;;;;;5036526;28;20054;-88
2023/10/26 12:12:39;;;;;;;17.10;13.85;;;;;;;;;;5018940;28;20034;-85
2023/10/26 12:15:06;;;;;;;18.75;14.75;;;;;;;;;;5001418;28;20030;-85
2023/10/26 12:17:32;;;;;;;20.40;15.68;;;;;;;;;;4996242;28;20065;-87
2023/10/26 12:19:58;;;;;;;19.48;15.10;;;;;;;;;;4996318;28;20034;-86
2023/10/26 12:22:24;;;;;;;20.65;14.95;;;;;;;;;;4985263;28;20034;-86
2023/10/26 12:24:50;;;;;;;19.63;15.48;;;;;;;;;;5011258;28;20343;-87
2023/10/26 12:27:17;;;;;;;22.58;17.33;;;;;;;;;;5012828;28;20368;-86
2023/10/26 12:29:43;;;;;;;22.25;16.85;;;;;;;;;;5030376;28;20098;-87
2023/10/26 12:32:10;;;;;;;22.30;17.63;;;;;;;;;;5011572;28;20121;-87
2023/10/26 12:34:36;;;;;;;22.73;18.05;;;;;;;;;;5031037;28;20034;-87
2023/10/26 12:37:02;;;;;;;22.98;18.33;;;;;;;;;;5033762;28;20033;-87
2023/10/26 12:39:28;;;;;;;24.30;18.10;;;;;;;;;;5033179;28;20077;-87
2023/10/26 12:41:55;;;;;;;25.02;19.40;;;;;;;;;;4998766;28;20463;-86
2023/10/26 12:44:24;;;;;;;29.20;19.48;;;;;;;;;;5030911;28;20038;-87
2023/10/26 12:46:50;;;;;;;24.08;18.05;;;;;;;;;;5021476;28;20021;-88
2023/10/26 12:49:16;;;;;;;28.45;19.35;;;;;;;;;;5024211;28;20063;-88
2023/10/26 12:51:43;;;;;;;25.15;19.45;;;;;;;;;;4996617;28;20044;-87
2023/10/26 12:54:10;;;;;;;23.85;18.70;;;;;;;;;;5019155;28;20483;-89
2023/10/26 12:56:36;;;;;;;24.23;18.52;;;;;;;;;;5006198;28;20026;-88
2023/10/26 12:59:02;;;;;;;27.10;18.70;;;;;;;;;;4980500;28;20109;-89
2023/10/26 13:01:28;;;;;;;24.73;18.40;;;;;;;;;;5018468;28;20455;-88
2023/10/26 13:03:55;;;;;;;26.48;18.75;;;;;;;;;;5010746;28;20667;-88
2023/10/26 13:06:21;;;;;;;23.88;18.85;;;;;;;;;;5033527;28;20115;-89
2023/10/26 13:08:47;;;;;;;24.50;18.90;;;;;;;;;;5004122;28;20588;-87
2023/10/26 13:11:13;;;;;;;26.27;19.15;;;;;;;;;;5006763;28;20085;-88
2023/10/26 13:13:39;;;;;;;25.73;19.05;;;;;;;;;;5029895;28;20037;-86
2023/10/26 13:16:10;;;;;;;27.55;19.45;;;;;;;;;;5001683;28;20072;-87
2023/10/26 13:18:36;;;;;;;25.08;19.38;;;;;;;;;;5002686;28;20388;-88
2023/10/26 13:21:03;;;;;;;24.63;18.20;;;;;;;;;;5035380;28;20014;-88
2023/10/26 13:23:30;;;;;;;32.05;19.65;;;;;;;;;;5005027;28;20029;-84
2023/10/26 13:25:56;;;;;;;25.73;18.38;;;;;;;;;;5026922;28;20363;-87
2023/10/26 13:28:23;;;;;;;27.58;19.20;;;;;;;;;;4987993;28;20045;-87
2023/10/26 13:30:49;;;;;;;27.30;19.60;;;;;;;;;;5001417;28;20112;-87
2023/10/26 13:33:15;;;;;;;33.88;19.60;;;;;;;;;;5007295;28;20397;-89
2023/10/26 13:35:41;;;;;;;27.63;20.98;;;;;;;;;;5006420;28;20429;-86
2023/10/26 13:38:14;;;;;;;28.55;19.67;;;;;;;;;;5005148;28;20064;-88
2023/10/26 13:40:40;;;;;;;28.85;19.98;;;;;;;;;;5016244;28;20030;-88
2023/10/26 13:43:08;;;;;;;28.88;20.80;;;;;;;;;;5019289;28;20056;-88
2023/10/26 13:45:34;;;;;;;28.90;19.83;;;;;;;;;;5023527;28;20030;-87
2023/10/26 13:48:01;;;;;;;27.73;20.63;;;;;;;;;;5010866;28;20037;-86
2023/10/26 13:50:28;;;;;;;25.58;20.17;;;;;;;;;;5022950;28;20022;-89
2023/10/26 13:52:54;;;;;;;28.77;20.55;;;;;;;;;;5000602;28;20107;-87
2023/10/26 13:55:20;;;;;;;27.20;19.33;;;;;;;;;;5022294;28;20439;-86
2023/10/26 13:57:47;;;;;;;28.30;20.30;;;;;;;;;;4996513;28;20018;-87
2023/10/26 14:00:13;;;;;;;29.67;22.00;;;;;;;;;;5018843;28;20120;-91
2023/10/26 14:02:40;;;;;;;27.48;21.38;;;;;;;;;;5007065;28;20030;-92
2023/10/26 14:05:08;;;;;;;28.70;21.58;;;;;;;;;;5001329;28;20046;-89
2023/10/26 14:07:34;;;;;;;27.40;20.70;;;;;;;;;;5012676;28;20036;-89